createdAt,value
2022-10-18T00:00:27.028Z,8.27
2022-10-18T00:02:54.722Z,7.65
2022-10-18T00:05:23.680Z,8.10
2022-10-18T00:07:50.886Z,8.18
2022-10-18T00:10:18.525Z,9.20
2022-10-18T00:15:14.781Z,8.20
2022-10-18T00:17:42.572Z,8.15
2022-10-18T00:20:11.563Z,8.55
2022-10-18T00:22:41.454Z,9.00
2022-10-18T00:25:10.243Z,8.98
2022-10-18T00:27:38.087Z,8.70
2022-10-18T00:30:06.559Z,8.90
2022-10-18T00:32:37.303Z,8.60
2022-10-18T00:35:05.149Z,8.63
2022-10-18T00:37:33.052Z,7.95
2022-10-18T00:40:02.732Z,8.35
2022-10-18T00:42:32.411Z,8.50
2022-10-18T00:45:21.759Z,9.40
2022-10-18T00:47:53.955Z,7.47
2022-10-18T00:50:23.677Z,7.57
2022-10-18T00:52:54.400Z,8.57
2022-10-18T00:55:24.161Z,8.00
2022-10-18T00:57:52.217Z,8.02
2022-10-18T01:00:20.586Z,7.45
2022-10-18T01:02:48.791Z,8.45
2022-10-18T01:05:18.975Z,9.20
2022-10-18T01:08:15.249Z,8.95
2022-10-18T01:10:54.899Z,7.28
2022-10-18T01:13:40.337Z,7.18
2022-10-18T01:16:18.682Z,7.70
2022-10-18T01:18:53.762Z,7.38
2022-10-18T01:21:33.560Z,7.75
2022-10-18T01:24:46.561Z,7.20
2022-10-18T01:27:55.010Z,7.20
2022-10-18T01:30:39.995Z,7.97
2022-10-18T01:33:17.884Z,7.15
2022-10-18T01:35:51.830Z,7.50
2022-10-18T01:38:21.254Z,7.15
2022-10-18T01:40:51.361Z,7.13
2022-10-18T01:43:24.005Z,7.72
2022-10-18T01:45:55.667Z,6.55
2022-10-18T01:48:23.485Z,7.70
2022-10-18T01:50:52.633Z,8.07
2022-10-18T01:53:29.748Z,8.27
2022-10-18T01:56:23.850Z,7.88
2022-10-18T01:59:13.460Z,7.75
2022-10-18T02:01:52.470Z,8.60
2022-10-18T02:04:30.580Z,7.38
2022-10-18T02:07:05.096Z,7.85
2022-10-18T02:09:38.386Z,7.43
2022-10-18T02:12:10.952Z,7.10
2022-10-18T02:14:40.096Z,7.25
2022-10-18T02:17:13.105Z,8.15
2022-10-18T02:19:44.175Z,8.13
2022-10-18T02:22:13.258Z,7.18
2022-10-18T02:24:45.283Z,7.95
2022-10-18T02:27:14.474Z,7.93
2022-10-18T02:29:43.471Z,7.80
2022-10-18T02:32:19.289Z,8.63
2022-10-18T02:34:53.761Z,8.27
2022-10-18T02:37:21.782Z,8.27
2022-10-18T02:39:51.869Z,7.93
2022-10-18T02:42:21.138Z,7.53
2022-10-18T02:44:48.454Z,7.72
2022-10-18T02:47:17.264Z,8.02
2022-10-18T02:49:44.227Z,8.30
2022-10-18T02:52:11.681Z,7.63
2022-10-18T02:54:38.648Z,8.23
2022-10-18T02:57:06.388Z,7.22
2022-10-18T02:59:33.907Z,8.90
2022-10-18T03:02:01.404Z,8.20
2022-10-18T03:04:30.569Z,8.85
2022-10-18T03:06:58.083Z,8.85
2022-10-18T03:09:25.922Z,8.60
2022-10-18T03:11:53.457Z,8.18
2022-10-18T03:14:21.104Z,8.93
2022-10-18T03:16:48.321Z,9.07
2022-10-18T03:19:15.661Z,8.55
2022-10-18T03:21:45.767Z,9.02
2022-10-18T03:24:12.970Z,9.25
2022-10-18T03:26:40.554Z,7.97
2022-10-18T03:29:08.047Z,8.63
2022-10-18T03:31:35.192Z,8.27
2022-10-18T03:34:02.405Z,9.55
2022-10-18T03:36:29.597Z,8.23
2022-10-18T03:38:59.029Z,9.10
2022-10-18T03:41:26.103Z,8.98
2022-10-18T03:43:53.082Z,9.00
2022-10-18T03:46:20.649Z,8.80
2022-10-18T03:48:48.127Z,9.20
2022-10-18T03:51:15.432Z,8.88
2022-10-18T03:53:43.207Z,9.35
2022-10-18T03:56:12.661Z,9.18
2022-10-18T03:58:39.845Z,8.32
2022-10-18T04:01:07.335Z,8.18
2022-10-18T04:03:35.394Z,8.40
2022-10-18T04:06:03.266Z,8.93
2022-10-18T04:08:30.772Z,8.60
2022-10-18T04:10:58.396Z,9.10
2022-10-18T04:13:27.755Z,9.43
2022-10-18T04:15:54.788Z,9.00
2022-10-18T04:18:22.470Z,9.90
2022-10-18T04:20:49.496Z,8.93
2022-10-18T04:23:17.274Z,9.57
2022-10-18T04:25:44.469Z,9.43
2022-10-18T04:28:11.971Z,9.70
2022-10-18T04:30:42.063Z,9.05
2022-10-18T04:33:09.522Z,8.70
2022-10-18T04:35:37.094Z,8.60
2022-10-18T04:38:04.982Z,8.73
2022-10-18T04:40:32.463Z,9.00
2022-10-18T04:42:59.993Z,9.00
2022-10-18T04:45:27.352Z,8.57
2022-10-18T04:47:56.337Z,9.02
2022-10-18T04:50:23.849Z,8.73
2022-10-18T04:52:51.678Z,8.95
2022-10-18T04:55:19.189Z,8.48
2022-10-18T04:57:47.344Z,9.70
2022-10-18T05:00:15.848Z,9.23
2022-10-18T05:02:43.815Z,8.93
2022-10-18T05:05:14.465Z,8.40
2022-10-18T05:07:41.922Z,9.68
2022-10-18T05:10:10.080Z,8.90
2022-10-18T05:12:37.574Z,8.60
2022-10-18T05:15:05.635Z,8.98
2022-10-18T05:17:32.814Z,8.77
2022-10-18T05:20:00.254Z,9.95
2022-10-18T05:22:29.671Z,7.88
2022-10-18T05:24:57.124Z,9.00
2022-10-18T05:27:24.297Z,8.50
2022-10-18T05:29:51.497Z,9.63
2022-10-18T05:32:18.746Z,9.05
2022-10-18T05:34:45.863Z,8.70
2022-10-18T05:37:12.815Z,10.57
2022-10-18T05:39:41.094Z,9.27
2022-10-18T05:42:08.588Z,8.90
2022-10-18T05:44:35.554Z,9.90
2022-10-18T05:47:02.899Z,8.95
2022-10-18T05:49:30.632Z,8.90
2022-10-18T05:51:58.221Z,9.85
2022-10-18T05:54:26.117Z,9.48
2022-10-18T05:56:56.135Z,8.70
2022-10-18T05:59:23.399Z,9.07
2022-10-18T06:01:50.858Z,9.23
2022-10-18T06:04:18.136Z,10.05
2022-10-18T06:06:45.614Z,9.32
2022-10-18T06:09:13.413Z,9.20
2022-10-18T06:11:40.565Z,8.93
2022-10-18T06:14:11.075Z,8.65
2022-10-18T06:16:38.548Z,8.90
2022-10-18T06:19:05.660Z,9.43
2022-10-18T06:21:33.073Z,9.50
2022-10-18T06:24:00.780Z,8.88
2022-10-18T06:26:28.996Z,9.45
2022-10-18T06:28:56.418Z,9.55
2022-10-18T06:31:26.067Z,10.48
2022-10-18T06:33:54.005Z,9.20
2022-10-18T06:36:22.312Z,8.63
2022-10-18T06:38:49.611Z,9.48
2022-10-18T06:41:17.591Z,10.73
2022-10-18T06:43:49.249Z,10.35
2022-10-18T06:46:16.407Z,11.50
2022-10-18T06:48:47.212Z,10.88
2022-10-18T06:51:14.751Z,11.32
2022-10-18T06:53:44.537Z,12.70
2022-10-18T06:56:26.030Z,12.07
2022-10-18T06:58:53.039Z,11.20
2022-10-18T07:01:20.654Z,12.00
2022-10-18T07:03:52.350Z,12.40
2022-10-18T07:06:20.618Z,11.93
2022-10-18T07:08:49.094Z,11.52
2022-10-18T07:11:18.614Z,12.20
2022-10-18T07:13:46.033Z,11.15
2022-10-18T07:16:18.093Z,11.75
2022-10-18T07:18:49.473Z,11.90
2022-10-18T07:21:19.205Z,10.98
2022-10-18T07:23:47.080Z,11.63
2022-10-18T07:26:17.106Z,10.90
2022-10-18T07:28:46.014Z,10.85
2022-10-18T07:31:13.823Z,11.65
2022-10-18T07:33:41.255Z,11.02
2022-10-18T07:36:13.262Z,11.23
2022-10-18T07:38:41.440Z,11.00
2022-10-18T07:41:12.171Z,10.82
2022-10-18T07:43:42.895Z,11.77
2022-10-18T07:46:10.107Z,11.00
2022-10-18T07:48:37.195Z,11.20
2022-10-18T07:51:05.005Z,10.18
2022-10-18T07:53:34.103Z,11.45
2022-10-18T07:56:05.851Z,11.10
2022-10-18T07:58:35.884Z,10.63
2022-10-18T08:01:03.826Z,11.23
2022-10-18T08:03:31.033Z,11.10
2022-10-18T08:05:58.687Z,12.20
2022-10-18T08:08:27.021Z,12.85
2022-10-18T08:11:01.739Z,11.15
2022-10-18T08:13:29.684Z,11.73
2022-10-18T08:16:00.472Z,10.93
2022-10-18T08:18:27.984Z,11.50
2022-10-18T08:20:55.007Z,10.55
2022-10-18T08:23:22.117Z,11.65
2022-10-18T08:25:49.302Z,12.55
2022-10-18T08:28:18.499Z,11.90
2022-10-18T08:30:45.786Z,11.15
2022-10-18T08:33:13.136Z,11.95
2022-10-18T08:35:40.488Z,12.15
2022-10-18T08:38:07.550Z,10.65
2022-10-18T08:40:35.578Z,11.93
2022-10-18T08:43:11.379Z,12.68
2022-10-18T08:45:42.950Z,13.93
2022-10-18T08:48:20.667Z,13.45
2022-10-18T08:50:50.441Z,13.82
2022-10-18T08:53:24.315Z,14.25
2022-10-18T08:55:58.221Z,12.90
2022-10-18T08:58:30.260Z,14.63
2022-10-18T09:01:07.330Z,12.88
2022-10-18T09:03:53.758Z,13.32
2022-10-18T09:06:29.279Z,13.18
2022-10-18T09:09:20.459Z,12.60
2022-10-18T09:12:01.895Z,12.32
2022-10-18T09:14:48.486Z,12.77
2022-10-18T09:17:28.536Z,13.02
2022-10-18T09:20:12.307Z,13.65
2022-10-18T09:22:51.656Z,12.45
2022-10-18T09:25:21.863Z,13.45
2022-10-18T09:27:54.714Z,12.05
2022-10-18T09:30:41.741Z,13.55
2022-10-18T09:33:24.760Z,13.73
2022-10-18T09:35:58.238Z,13.32
2022-10-18T09:38:29.373Z,13.43
2022-10-18T09:41:00.940Z,12.55
2022-10-18T09:43:40.295Z,12.90
2022-10-18T09:46:09.109Z,13.10
2022-10-18T09:48:47.272Z,14.13
2022-10-18T09:51:17.216Z,12.75
2022-10-18T09:53:54.915Z,11.82
2022-10-18T09:56:28.307Z,12.32
2022-10-18T09:58:56.295Z,12.55
2022-10-18T10:01:26.667Z,11.80
2022-10-18T10:03:57.182Z,12.07
2022-10-18T10:06:27.333Z,12.77
2022-10-18T10:09:00.002Z,12.18
2022-10-18T10:11:35.498Z,13.15
2022-10-18T10:14:13.344Z,12.40
2022-10-18T10:16:48.169Z,11.75
2022-10-18T10:19:20.803Z,11.63
2022-10-18T10:21:50.592Z,11.65
2022-10-18T10:24:28.932Z,11.43
2022-10-18T10:27:04.270Z,12.07
2022-10-18T10:30:04.254Z,11.32
2022-10-18T10:32:45.924Z,11.70
2022-10-18T10:35:41.499Z,11.68
2022-10-18T10:38:25.036Z,11.95
2022-10-18T10:40:52.458Z,12.02
2022-10-18T10:43:40.228Z,11.90
2022-10-18T10:46:10.727Z,11.38
2022-10-18T10:48:48.205Z,11.27
2022-10-18T10:51:28.193Z,10.93
2022-10-18T10:54:00.255Z,12.32
2022-10-18T10:56:30.192Z,11.10
2022-10-18T10:59:02.655Z,10.90
2022-10-18T11:01:32.442Z,11.23
2022-10-18T11:04:01.715Z,11.00
2022-10-18T11:06:54.501Z,11.57
2022-10-18T11:09:36.797Z,10.57
2022-10-18T11:12:14.873Z,10.60
2022-10-18T11:14:45.974Z,10.98
2022-10-18T11:17:22.631Z,11.32
2022-10-18T11:20:17.766Z,11.02
2022-10-18T11:22:58.153Z,10.68
2022-10-18T11:25:34.056Z,10.68
2022-10-18T11:28:06.578Z,10.52
2022-10-18T11:30:50.084Z,9.95
2022-10-18T11:33:50.015Z,10.00
2022-10-18T11:36:24.840Z,10.82
2022-10-18T11:38:58.428Z,11.00
2022-10-18T11:41:31.868Z,10.85
2022-10-18T11:44:03.321Z,10.52
2022-10-18T11:46:47.848Z,10.13
2022-10-18T11:49:42.502Z,10.45
2022-10-18T11:52:19.507Z,9.52
2022-10-18T11:55:04.259Z,10.52
2022-10-18T11:57:42.569Z,10.60
2022-10-18T12:00:23.020Z,10.27
2022-10-18T12:03:12.102Z,10.10
2022-10-18T12:05:41.788Z,9.07
2022-10-18T12:08:12.668Z,10.00
2022-10-18T12:11:03.479Z,10.55
2022-10-18T12:13:39.509Z,8.95
2022-10-18T12:16:10.107Z,9.52
2022-10-18T12:18:48.883Z,11.13
2022-10-18T12:21:26.247Z,9.85
2022-10-18T12:24:00.474Z,8.93
2022-10-18T12:26:31.469Z,9.70
2022-10-18T12:29:15.990Z,9.70
2022-10-18T12:31:48.370Z,10.40
2022-10-18T12:34:28.636Z,10.15
2022-10-18T12:37:08.289Z,10.90
2022-10-18T12:39:50.446Z,10.45
2022-10-18T12:42:33.319Z,10.57
2022-10-18T12:45:06.753Z,10.00
2022-10-18T12:47:34.983Z,10.73
2022-10-18T12:50:07.579Z,10.38
2022-10-18T12:52:35.146Z,10.63
2022-10-18T12:55:30.920Z,9.73
2022-10-18T12:58:25.877Z,10.18
2022-10-18T13:00:55.865Z,9.75
2022-10-18T13:03:51.781Z,10.48
2022-10-18T13:06:19.484Z,10.05
2022-10-18T13:08:47.327Z,11.55
2022-10-18T13:11:35.378Z,9.73
2022-10-18T13:14:33.822Z,10.73
2022-10-18T13:17:12.165Z,10.32
2022-10-18T13:20:07.778Z,10.50
2022-10-18T13:23:01.373Z,11.68
2022-10-18T13:25:34.647Z,10.52
2022-10-18T13:28:16.267Z,9.95
2022-10-18T13:30:56.164Z,10.10
2022-10-18T13:33:38.349Z,10.30
2022-10-18T13:36:07.928Z,10.27
2022-10-18T13:38:43.387Z,10.00
2022-10-18T13:41:15.399Z,10.73
2022-10-18T13:44:23.191Z,10.63
2022-10-18T13:47:41.529Z,10.00
2022-10-18T13:50:46.467Z,10.25
2022-10-18T13:53:44.908Z,9.98
2022-10-18T13:56:52.655Z,10.35
2022-10-18T13:59:51.236Z,9.50
2022-10-18T14:02:55.046Z,10.32
2022-10-18T14:05:47.987Z,9.90
2022-10-18T14:08:20.427Z,9.98
2022-10-18T14:11:03.145Z,10.93
2022-10-18T14:13:40.008Z,10.38
2022-10-18T14:16:27.066Z,10.73
2022-10-18T14:19:05.775Z,9.48
2022-10-18T14:21:38.948Z,10.50
2022-10-18T14:24:20.666Z,10.60
2022-10-18T14:26:48.209Z,10.93
2022-10-18T14:29:20.442Z,9.32
2022-10-18T14:31:53.915Z,10.07
2022-10-18T14:34:22.905Z,10.02
2022-10-18T14:36:50.745Z,9.85
2022-10-18T14:39:21.759Z,10.40
2022-10-18T14:41:51.518Z,10.38
2022-10-18T14:44:22.112Z,9.88
2022-10-18T14:46:51.733Z,9.25
2022-10-18T14:49:20.418Z,10.10
2022-10-18T14:51:53.443Z,9.60
2022-10-18T14:54:27.505Z,10.05
2022-10-18T14:56:59.679Z,9.57
2022-10-18T14:59:29.752Z,10.25
2022-10-18T15:01:59.670Z,10.77
2022-10-18T15:04:28.835Z,10.35
2022-10-18T15:06:59.359Z,10.27
2022-10-18T15:11:55.908Z,10.00
2022-10-18T15:14:24.696Z,10.82
2022-10-18T15:16:56.790Z,9.98
2022-10-18T15:19:31.352Z,10.13
2022-10-18T15:25:11.664Z,10.32
2022-10-18T15:27:43.585Z,9.50
2022-10-18T15:30:18.412Z,10.27
2022-10-18T15:32:52.638Z,10.30
2022-10-18T15:35:26.587Z,12.18
2022-10-18T15:37:57.698Z,10.52
2022-10-18T15:40:36.354Z,9.93
2022-10-18T15:43:28.185Z,10.70
2022-10-18T15:46:00.097Z,10.23
2022-10-18T15:48:34.120Z,10.05
2022-10-18T15:51:03.236Z,9.95
2022-10-18T15:53:54.424Z,10.15
2022-10-18T15:56:33.544Z,10.52
2022-10-18T15:59:02.356Z,10.02
2022-10-18T16:01:36.625Z,10.07
2022-10-18T16:04:08.543Z,10.00
2022-10-18T16:06:36.248Z,10.02
2022-10-18T16:09:05.481Z,10.48
2022-10-18T16:11:33.885Z,10.00
2022-10-18T16:14:01.105Z,9.93
2022-10-18T16:16:29.658Z,9.98
2022-10-18T16:18:57.515Z,10.50
2022-10-18T16:21:28.658Z,10.27
2022-10-18T16:23:56.166Z,9.80
2022-10-18T16:26:26.316Z,10.60
2022-10-18T16:28:54.634Z,10.43
2022-10-18T16:31:25.310Z,10.02
2022-10-18T16:33:53.797Z,10.25
2022-10-18T16:36:23.090Z,10.65
2022-10-18T16:38:50.408Z,10.50
2022-10-18T16:41:18.276Z,10.82
2022-10-18T16:43:48.309Z,11.77
2022-10-18T16:46:17.848Z,11.05
2022-10-18T16:48:46.593Z,10.27
2022-10-18T16:51:14.330Z,10.20
2022-10-18T16:53:42.148Z,11.20
2022-10-18T16:56:14.689Z,10.43
2022-10-18T16:58:42.837Z,12.05
2022-10-18T17:01:14.211Z,12.25
2022-10-18T17:03:41.696Z,12.85
2022-10-18T17:06:15.796Z,12.40
2022-10-18T17:08:43.479Z,12.07
2022-10-18T17:11:13.456Z,11.02
2022-10-18T17:13:41.815Z,12.20
2022-10-18T17:16:23.792Z,11.20
2022-10-18T17:18:51.276Z,11.65
2022-10-18T17:21:20.066Z,12.77
2022-10-18T17:23:47.696Z,13.10
2022-10-18T17:26:28.273Z,11.63
2022-10-18T17:28:59.926Z,12.80
2022-10-18T17:31:31.511Z,11.90
2022-10-18T17:33:59.519Z,11.88
2022-10-18T17:36:28.949Z,11.77
2022-10-18T17:38:57.875Z,11.10
2022-10-18T17:41:26.025Z,11.10
2022-10-18T17:43:55.388Z,11.82
2022-10-18T17:46:24.197Z,11.20
2022-10-18T17:48:58.737Z,11.95
2022-10-18T17:51:29.077Z,12.50
2022-10-18T17:53:57.827Z,12.35
2022-10-18T17:56:25.536Z,11.65
2022-10-18T17:58:54.529Z,12.30
2022-10-18T18:01:24.297Z,11.07
2022-10-18T18:03:58.579Z,12.52
2022-10-18T18:06:28.351Z,11.82
2022-10-18T18:08:57.349Z,11.30
2022-10-18T18:11:26.088Z,13.80
2022-10-18T18:13:56.390Z,11.75
2022-10-18T18:16:28.036Z,11.30
2022-10-18T18:19:00.451Z,10.70
2022-10-18T18:21:29.276Z,10.43
2022-10-18T18:23:57.917Z,11.68
2022-10-18T18:26:26.917Z,11.02
2022-10-18T18:28:59.743Z,11.07
2022-10-18T18:31:30.841Z,11.25
2022-10-18T18:34:04.258Z,11.20
2022-10-18T18:36:33.258Z,10.82
2022-10-18T18:39:02.078Z,11.52
2022-10-18T18:41:31.317Z,10.90
2022-10-18T18:44:03.335Z,11.35
2022-10-18T18:46:39.062Z,11.40
2022-10-18T18:49:14.828Z,11.15
2022-10-18T18:51:43.258Z,11.23
2022-10-18T18:54:12.406Z,11.90
2022-10-18T18:56:44.853Z,12.98
2022-10-18T18:59:15.077Z,13.02
2022-10-18T19:01:43.821Z,11.50
2022-10-18T19:04:14.349Z,14.80
2022-10-18T19:06:44.115Z,13.48
2022-10-18T19:09:14.616Z,14.02
2022-10-18T19:11:45.577Z,11.73
2022-10-18T19:14:15.046Z,12.63
2022-10-18T19:16:48.339Z,12.82
2022-10-18T19:19:23.081Z,12.13
2022-10-18T19:21:54.565Z,12.30
2022-10-18T19:24:24.677Z,12.05
2022-10-18T19:26:55.836Z,14.05
2022-10-18T19:29:26.056Z,12.75
2022-10-18T19:31:56.580Z,13.90
2022-10-18T19:34:28.962Z,12.02
2022-10-18T19:36:57.818Z,11.40
2022-10-18T19:39:28.168Z,12.23
2022-10-18T19:41:58.685Z,12.57
2022-10-18T19:44:29.271Z,13.43
2022-10-18T19:46:57.950Z,12.52
2022-10-18T19:49:27.997Z,12.45
2022-10-18T19:51:57.262Z,12.88
2022-10-18T19:54:26.466Z,12.20
2022-10-18T19:56:54.698Z,11.75
2022-10-18T19:59:23.438Z,11.20
2022-10-18T20:01:51.917Z,12.45
2022-10-18T20:04:20.565Z,11.40
2022-10-18T20:06:51.096Z,11.30
2022-10-18T20:09:20.635Z,11.93
2022-10-18T20:11:48.296Z,10.82
2022-10-18T20:14:15.857Z,12.93
2022-10-18T20:16:43.065Z,12.82
2022-10-18T20:19:10.897Z,11.95
2022-10-18T20:21:38.757Z,13.35
2022-10-18T20:24:08.864Z,11.63
2022-10-18T20:26:36.639Z,11.05
2022-10-18T20:29:04.930Z,12.25
2022-10-18T20:31:34.035Z,11.77
2022-10-18T20:34:04.017Z,11.63
2022-10-18T20:36:32.085Z,11.02
2022-10-18T20:39:00.710Z,10.88
2022-10-18T20:41:32.256Z,11.13
2022-10-18T20:44:01.240Z,12.32
2022-10-18T20:46:31.144Z,11.88
2022-10-18T20:48:58.448Z,11.55
2022-10-18T20:51:26.429Z,12.45
2022-10-18T20:53:54.251Z,10.45
2022-10-18T20:56:23.050Z,12.30
2022-10-18T20:58:53.976Z,12.98
2022-10-18T21:01:23.171Z,13.05
2022-10-18T21:03:52.296Z,13.82
2022-10-18T21:06:21.403Z,13.45
2022-10-18T21:08:53.279Z,13.15
2022-10-18T21:11:20.350Z,13.52
2022-10-18T21:13:51.637Z,12.02
2022-10-18T21:16:19.430Z,12.60
2022-10-18T21:18:47.173Z,11.18
2022-10-18T21:21:16.307Z,11.50
2022-10-18T21:23:44.194Z,12.48
2022-10-18T21:26:14.843Z,12.35
2022-10-18T21:28:42.150Z,10.57
2022-10-18T21:31:14.084Z,11.18
2022-10-18T21:33:41.597Z,11.05
2022-10-18T21:36:09.022Z,11.85
2022-10-18T21:38:36.319Z,12.18
2022-10-18T21:41:08.630Z,11.63
2022-10-18T21:43:36.810Z,10.52
2022-10-18T21:46:04.034Z,11.05
2022-10-18T21:48:32.503Z,12.15
2022-10-18T21:51:03.897Z,11.57
2022-10-18T21:53:31.594Z,11.18
2022-10-18T21:56:05.642Z,10.45
2022-10-18T21:58:33.119Z,10.68
2022-10-18T22:01:00.588Z,11.23
2022-10-18T22:03:27.635Z,12.02
2022-10-18T22:06:00.670Z,11.18
2022-10-18T22:08:27.797Z,12.38
2022-10-18T22:10:54.846Z,11.95
2022-10-18T22:13:21.818Z,11.20
2022-10-18T22:15:49.319Z,10.55
2022-10-18T22:18:16.779Z,11.05
2022-10-18T22:20:52.988Z,10.68
2022-10-18T22:23:21.451Z,12.07
2022-10-18T22:25:48.896Z,11.73
2022-10-18T22:28:16.331Z,17.33
2022-10-18T22:30:43.337Z,14.40
2022-10-18T22:33:10.382Z,15.13
2022-10-18T22:35:37.333Z,14.90
2022-10-18T22:38:04.292Z,13.07
2022-10-18T22:40:32.888Z,11.45
2022-10-18T22:43:00.028Z,10.65
2022-10-18T22:45:27.050Z,10.52
2022-10-18T22:47:54.373Z,10.82
2022-10-18T22:50:21.320Z,10.68
2022-10-18T22:52:50.515Z,10.10
2022-10-18T22:55:20.068Z,11.25
2022-10-18T22:57:48.682Z,10.30
2022-10-18T23:00:15.892Z,11.80
2022-10-18T23:02:42.865Z,10.60
2022-10-18T23:05:10.191Z,11.35
2022-10-18T23:07:37.178Z,11.35
2022-10-18T23:10:04.627Z,10.52
2022-10-18T23:12:31.897Z,10.35
2022-10-18T23:15:00.916Z,9.65
2022-10-18T23:17:28.071Z,9.23
2022-10-18T23:19:55.229Z,10.50
2022-10-18T23:22:22.479Z,10.15
2022-10-18T23:24:49.446Z,9.57
2022-10-18T23:27:16.362Z,9.70
2022-10-18T23:29:43.558Z,9.07
2022-10-18T23:32:12.037Z,9.38
2022-10-18T23:34:39.188Z,9.80
2022-10-18T23:37:06.152Z,9.50
2022-10-18T23:39:33.196Z,10.80
2022-10-18T23:42:00.231Z,9.27
2022-10-18T23:44:27.142Z,9.60
2022-10-18T23:46:54.642Z,8.95
2022-10-18T23:49:23.027Z,9.57
2022-10-18T23:51:50.207Z,9.68
2022-10-18T23:54:17.258Z,10.50
2022-10-18T23:56:44.217Z,9.85
2022-10-18T23:59:11.241Z,11.20
